Marathon Airport
CYSP : now visible

Airfield :











YOU CAN JOIN US ON...

 
LOGIN :

Register | Disclaimer

   EN    FR    IT 

 









Legend :    VFR   Marginal VFR   IFR   Intensive IFR   Very Intensive IFR
Visi :
Ceiling :
>= 8 km
>= 3000ft
5 to 8 km
1000 to 3000 ft
1500m to 5 km
500 to 1000 ft
800 to 1500m
200 to 500 ft
< 800m
< 200 ft
Symbols :   Thunderstorms  Fog  Heavy snow  Heavy precipitations  Wind > 20 kt






- Airport Elevation : 1035 ft
- IATA code : YSP


CYSP - Marathon

CURRENT METAR :
  • 181900Z 24004KT 170V330 15SM SKC 16/07 A3023 RMK SLP247 DENSITY ALT 1100FT

EXPIRED METARs :
  • 181800Z 24005G15KT 180V350 15SM FEW300 15/07 A3024 RMK CI1 CI TR SLP250
  • 181700Z 25006KT 180V330 15SM FEW250 15/07 A3023 RMK CI1 SLP249

TAF TAF CYSP
Valid from the 18 at 14:00 until the 18 at 21:00 UTC


181338Z 1814/1821 VRB03KT P6SM FEW030
BECMG 1814/1816 21006KT RMK NXT FCST WILL BE ISSUED AT 191345Z
CZYZ FIR / North America



MET'MAP, your aeronautical weather chart ! - Copyright ORBIFLY December 2007 - Disclaimer

ORBIFLY MET'MAP TEAM :

Programming & Development : Alexandra Zaïnal
Concept & original design : Baudouin d'Aumeries
Assistance for programming : Marc-Olivier Méhu
Technical & hardware support : Manuel Goepfert

Contact : metmap@orbifly.com




SOURCES & CREDITS :

   NOAA       Earth
Advisory